Time;durP1;ratioP1;P1;durP2;ratioP2;P2;SDS_P1;SDS_P2;PMS_P1;PMS_P2;Temp;Humidity;BMP_temperature;BMP_pressure;BME280_temperature;BME280_humidity;BME280_pressure;Samples;Min_cycle;Max_cycle;Signal;HPM_P1;HPM_P2
2022/09/26 00:00:34;;;;;;;4.03;0.90;;;11.60;99.90;;;;;;4977774;28;20054;-75
2022/09/26 00:03:00;;;;;;;3.13;0.90;;;11.40;99.90;;;;;;4977673;28;20065;-75
2022/09/26 00:05:26;;;;;;;6.78;0.98;;;11.60;99.90;;;;;;4977477;28;20055;-75
2022/09/26 00:07:52;;;;;;;4.78;0.95;;;11.80;99.90;;;;;;4976893;28;20062;-75
2022/09/26 00:10:17;;;;;;;6.60;0.80;;;11.60;99.90;;;;;;4976153;28;20057;-74
2022/09/26 00:12:44;;;;;;;1.13;0.70;;;11.60;99.90;;;;;;4976742;28;20486;-75
2022/09/26 00:15:10;;;;;;;2.90;0.70;;;11.60;99.90;;;;;;4976400;28;20112;-75
2022/09/26 00:17:36;;;;;;;2.13;0.60;;;11.70;99.90;;;;;;4976403;28;20479;-75
2022/09/26 00:20:02;;;;;;;4.97;0.70;;;11.70;99.90;;;;;;4976342;28;20042;-75
2022/09/26 00:22:28;;;;;;;2.28;0.80;;;11.60;99.90;;;;;;4976479;28;20042;-75
2022/09/26 00:24:53;;;;;;;2.58;0.70;;;11.70;99.90;;;;;;4959500;28;20042;-75
2022/09/26 00:27:19;;;;;;;2.25;0.77;;;11.70;99.90;;;;;;4976479;28;20042;-75
2022/09/26 00:29:45;;;;;;;1.40;0.70;;;12.00;99.90;;;;;;4976465;28;20054;-75
2022/09/26 00:32:11;;;;;;;2.50;0.77;;;11.60;99.90;;;;;;4976398;28;20077;-75
2022/09/26 00:34:36;;;;;;;1.52;0.80;;;11.90;99.90;;;;;;4976343;28;20046;-75
2022/09/26 00:37:02;;;;;;;1.77;0.77;;;11.60;99.90;;;;;;4976486;28;20157;-75
2022/09/26 00:39:28;;;;;;;1.40;0.80;;;11.60;99.90;;;;;;4958954;28;20063;-75
2022/09/26 00:41:53;;;;;;;3.15;0.90;;;11.70;99.90;;;;;;4976173;28;20038;-75
2022/09/26 00:44:48;;;;;;;2.20;1.10;;;11.60;99.90;;;;;;4976838;28;20049;-75
2022/09/26 00:47:39;;;;;;;2.00;0.90;;;11.60;99.90;;;;;;4976097;28;20043;-75
2022/09/26 00:50:29;;;;;;;1.50;0.93;;;11.50;99.90;;;;;;4976094;28;20153;-75
2022/09/26 00:53:06;;;;;;;1.30;0.90;;;11.50;99.90;;;;;;4976074;28;20058;-75
2022/09/26 00:55:37;;;;;;;2.33;0.90;;;11.50;99.90;;;;;;4976004;28;20050;-74
2022/09/26 00:58:18;;;;;;;3.65;1.00;;;11.40;99.90;;;;;;4975267;28;20069;-75
2022/09/26 01:00:46;;;;;;;4.30;1.20;;;11.50;99.90;;;;;;4976752;28;20053;-74
2022/09/26 01:03:14;;;;;;;3.10;1.00;;;11.40;99.90;;;;;;4976578;28;20113;-75
2022/09/26 01:05:40;;;;;;;2.53;1.27;;;11.40;99.90;;;;;;4975841;28;20125;-75
2022/09/26 01:08:06;;;;;;;2.53;0.95;;;11.50;99.90;;;;;;4974585;28;20142;-75
2022/09/26 01:10:35;;;;;;;4.22;1.20;;;11.40;99.90;;;;;;4975744;28;20082;-75
2022/09/26 01:13:01;;;;;;;2.95;1.52;;;11.40;99.90;;;;;;4975629;28;20494;-75
2022/09/26 01:15:27;;;;;;;1.52;1.10;;;11.50;99.90;;;;;;4974528;28;20122;-75
2022/09/26 01:17:54;;;;;;;3.80;1.30;;;11.40;99.90;;;;;;4974466;28;20055;-75
2022/09/26 01:20:41;;;;;;;2.58;1.25;;;11.40;99.90;;;;;;4976287;28;20043;-75
2022/09/26 01:23:31;;;;;;;1.30;1.10;;;11.40;99.90;;;;;;4975981;28;20039;-75
2022/09/26 01:26:09;;;;;;;3.67;1.17;;;11.40;99.90;;;;;;4975621;28;20058;-75
2022/09/26 01:28:53;;;;;;;4.30;1.88;;;11.20;99.90;;;;;;4975418;28;20082;-75
2022/09/26 01:32:47;;;;;;;3.83;1.30;;;11.30;99.90;;;;;;4975320;28;20101;-75
2022/09/26 01:34:58;;;;;;;4.30;1.30;;;11.30;99.90;;;;;;4975376;28;20055;-76
2022/09/26 01:37:50;;;;;;;2.63;1.23;;;11.30;99.90;;;;;;4975443;28;20055;-75
2022/09/26 01:40:26;;;;;;;3.50;1.15;;;11.30;99.90;;;;;;4945213;28;20059;-74
2022/09/26 01:43:13;;;;;;;2.60;1.38;;;11.20;99.90;;;;;;4974171;28;20062;-75
2022/09/26 01:45:57;;;;;;;2.63;1.20;;;11.20;99.90;;;;;;4975013;28;20372;-75
2022/09/26 01:48:38;;;;;;;2.53;1.02;;;11.20;99.90;;;;;;4975863;28;20105;-75
2022/09/26 01:51:14;;;;;;;2.08;1.17;;;11.20;99.90;;;;;;4975073;28;20050;-75
2022/09/26 01:53:58;;;;;;;2.42;1.00;;;11.30;99.90;;;;;;4975097;28;20566;-75
2022/09/26 01:56:29;;;;;;;3.20;1.00;;;11.20;99.90;;;;;;4973852;28;20046;-75
2022/09/26 01:59:06;;;;;;;2.00;1.20;;;11.20;99.90;;;;;;4975032;28;20046;-75
2022/09/26 02:01:36;;;;;;;2.75;0.90;;;11.30;99.90;;;;;;4974249;28;20042;-75
2022/09/26 02:04:09;;;;;;;1.95;0.80;;;11.30;99.90;;;;;;4973669;28;20054;-75
2022/09/26 02:07:01;;;;;;;3.28;0.90;;;11.30;99.90;;;;;;4958117;28;20051;-75
2022/09/26 02:09:44;;;;;;;3.22;0.95;;;11.30;99.90;;;;;;4975135;28;20145;-75
2022/09/26 02:12:16;;;;;;;1.30;0.80;;;11.30;99.90;;;;;;4975306;28;20101;-80
2022/09/26 02:14:46;;;;;;;2.22;0.80;;;11.30;99.90;;;;;;4975388;28;20097;-75
2022/09/26 02:17:16;;;;;;;3.35;1.17;;;11.30;99.90;;;;;;4973766;28;20058;-74
2022/09/26 02:19:55;;;;;;;3.50;1.00;;;11.30;99.90;;;;;;4975069;28;20407;-75
2022/09/26 02:22:32;;;;;;;2.42;0.98;;;11.40;99.90;;;;;;4973526;28;20074;-74
2022/09/26 02:24:59;;;;;;;3.22;0.90;;;11.50;99.90;;;;;;4974081;28;20054;-75
2022/09/26 02:27:26;;;;;;;5.82;1.10;;;11.40;99.90;;;;;;4974655;28;20082;-75
2022/09/26 02:29:52;;;;;;;2.05;0.85;;;11.30;99.90;;;;;;4973530;28;20047;-74
2022/09/26 02:32:22;;;;;;;3.45;0.98;;;11.30;99.90;;;;;;4974379;28;20543;-74
2022/09/26 02:34:49;;;;;;;1.77;0.93;;;11.40;99.90;;;;;;4974637;28;20051;-74
2022/09/26 02:37:16;;;;;;;1.88;0.90;;;11.70;99.90;;;;;;4976610;28;20055;-74
2022/09/26 02:39:44;;;;;;;3.17;1.00;;;11.50;99.90;;;;;;4979021;28;20058;-74
2022/09/26 02:42:31;;;;;;;3.08;0.95;;;11.50;99.90;;;;;;4978389;28;20057;-74
2022/09/26 02:45:12;;;;;;;3.35;1.00;;;11.40;99.90;;;;;;4978477;28;20074;-74
2022/09/26 02:48:06;;;;;;;2.38;1.17;;;11.40;99.90;;;;;;4978412;28;20053;-74
2022/09/26 02:51:02;;;;;;;2.22;1.20;;;11.70;99.90;;;;;;4977648;28;20066;-74
2022/09/26 02:53:37;;;;;;;2.55;1.65;;;11.30;99.90;;;;;;4978297;28;20084;-74
2022/09/26 02:56:24;;;;;;;5.32;1.25;;;11.50;99.90;;;;;;4978263;28;20053;-74
2022/09/26 02:58:58;;;;;;;3.65;1.20;;;11.10;99.90;;;;;;4977636;28;20047;-75
2022/09/26 03:01:35;;;;;;;4.65;1.58;;;11.30;99.90;;;;;;4978081;28;20043;-75
2022/09/26 03:04:39;;;;;;;3.67;1.80;;;11.40;99.90;;;;;;4978364;28;20043;-75
2022/09/26 03:07:10;;;;;;;3.55;1.65;;;11.30;99.90;;;;;;4978573;28;20051;-75
2022/09/26 03:09:37;;;;;;;8.13;1.88;;;11.20;99.90;;;;;;4978762;28;20055;-76
2022/09/26 03:12:05;;;;;;;4.32;2.10;;;11.30;99.90;;;;;;4977881;28;20125;-76
2022/09/26 03:14:35;;;;;;;4.45;2.05;;;11.30;99.90;;;;;;4977573;28;20066;-75
2022/09/26 03:17:02;;;;;;;3.53;1.83;;;11.30;99.90;;;;;;4977833;28;20058;-76
2022/09/26 03:19:53;;;;;;;4.97;1.98;;;11.40;99.90;;;;;;4976542;28;20054;-76
2022/09/26 03:22:19;;;;;;;6.88;2.67;;;11.20;99.90;;;;;;4978012;28;20041;-76
2022/09/26 03:24:45;;;;;;;5.68;2.30;;;11.20;99.90;;;;;;4978245;28;20483;-76
2022/09/26 03:27:12;;;;;;;5.57;1.80;;;11.30;99.90;;;;;;4976490;28;20086;-76
2022/09/26 03:29:38;;;;;;;3.45;1.60;;;11.10;99.90;;;;;;4977005;28;20058;-76
2022/09/26 03:32:04;;;;;;;3.47;2.00;;;11.10;99.90;;;;;;4977499;28;20035;-76
2022/09/26 03:34:30;;;;;;;6.38;2.20;;;11.10;99.90;;;;;;4977485;28;20043;-76
2022/09/26 03:36:56;;;;;;;4.68;2.35;;;11.30;99.90;;;;;;4978027;28;20141;-76
2022/09/26 03:39:22;;;;;;;7.85;3.28;;;11.10;99.90;;;;;;4977954;28;20082;-75
2022/09/26 03:41:48;;;;;;;5.47;2.10;;;11.00;99.90;;;;;;4977301;28;20050;-75
2022/09/26 03:44:14;;;;;;;4.07;2.33;;;11.30;99.90;;;;;;4977491;28;20105;-75
2022/09/26 03:46:41;;;;;;;5.00;2.28;;;11.10;99.90;;;;;;4976689;28;20047;-75
2022/09/26 03:49:09;;;;;;;6.50;2.60;;;11.30;99.90;;;;;;4959778;28;20050;-76
2022/09/26 03:51:35;;;;;;;3.63;1.98;;;11.10;99.90;;;;;;4975990;28;20086;-76
2022/09/26 03:54:00;;;;;;;3.40;2.45;;;11.10;99.90;;;;;;4977196;28;20093;-76
2022/09/26 03:56:26;;;;;;;6.95;2.65;;;11.20;99.90;;;;;;4975936;28;20046;-76
2022/09/26 03:58:52;;;;;;;6.15;3.13;;;11.10;99.90;;;;;;4977603;28;20073;-76
2022/09/26 04:01:20;;;;;;;4.22;2.42;;;11.10;99.90;;;;;;4976759;28;20051;-76
2022/09/26 04:03:47;;;;;;;5.03;3.15;;;11.10;99.90;;;;;;4976320;28;20081;-76
2022/09/26 04:06:18;;;;;;;5.00;2.65;;;11.20;99.90;;;;;;4976273;28;20495;-76
2022/09/26 04:08:44;;;;;;;6.50;2.63;;;11.10;99.90;;;;;;4977502;28;20456;-76
2022/09/26 04:11:13;;;;;;;4.80;2.33;;;11.10;99.90;;;;;;4976905;28;20090;-75
2022/09/26 04:13:39;;;;;;;5.50;2.85;;;11.30;99.90;;;;;;4975779;28;20130;-76
2022/09/26 04:16:06;;;;;;;4.32;3.03;;;11.10;99.90;;;;;;4976792;28;20126;-76
2022/09/26 04:18:33;;;;;;;6.95;3.75;;;11.50;99.90;;;;;;4975777;28;20062;-76
2022/09/26 04:21:00;;;;;;;6.10;3.35;;;11.40;99.90;;;;;;4976717;28;20130;-76
2022/09/26 04:23:27;;;;;;;4.10;3.10;;;11.10;99.90;;;;;;4976627;28;20047;-77
2022/09/26 04:25:53;;;;;;;6.40;3.35;;;11.20;99.90;;;;;;4976907;28;20043;-76
2022/09/26 04:28:19;;;;;;;6.72;3.33;;;11.20;99.90;;;;;;4976799;28;20430;-77
2022/09/26 04:30:45;;;;;;;7.05;3.00;;;11.30;99.90;;;;;;4976535;28;20050;-77
2022/09/26 04:33:11;;;;;;;5.95;2.90;;;11.10;99.90;;;;;;4976290;28;20483;-76
2022/09/26 04:35:37;;;;;;;5.30;2.70;;;11.10;99.90;;;;;;4975439;28;20043;-77
2022/09/26 04:38:03;;;;;;;6.97;3.63;;;11.30;99.90;;;;;;4974960;28;20189;-75
2022/09/26 04:40:30;;;;;;;8.65;3.47;;;11.10;99.90;;;;;;4976365;28;20051;-76
2022/09/26 04:42:57;;;;;;;5.18;3.47;;;11.10;99.90;;;;;;4976157;28;20043;-76
2022/09/26 04:45:22;;;;;;;6.10;3.17;;;11.10;99.90;;;;;;4976257;28;20056;-76
2022/09/26 04:47:48;;;;;;;3.92;3.40;;;11.10;99.90;;;;;;4975036;28;20406;-75
2022/09/26 04:50:14;;;;;;;4.65;3.63;;;11.00;99.90;;;;;;4976114;28;20561;-75
2022/09/26 04:52:40;;;;;;;6.57;3.55;;;11.00;99.90;;;;;;4976099;28;20125;-75
2022/09/26 04:55:06;;;;;;;6.70;4.10;;;11.10;99.90;;;;;;4976035;28;20089;-75
2022/09/26 04:57:32;;;;;;;5.55;3.88;;;11.00;99.90;;;;;;4976552;28;20058;-75
2022/09/26 04:59:57;;;;;;;6.40;3.95;;;11.00;99.90;;;;;;4975305;28;20051;-76
2022/09/26 05:02:23;;;;;;;6.05;3.83;;;11.00;99.90;;;;;;4974741;28;20075;-75
2022/09/26 05:04:50;;;;;;;4.88;3.88;;;11.20;99.90;;;;;;4974679;28;20543;-75
2022/09/26 05:07:17;;;;;;;6.80;3.33;;;11.20;99.90;;;;;;4975795;28;20100;-75
2022/09/26 05:09:43;;;;;;;6.10;3.72;;;11.10;99.90;;;;;;4974581;28;20062;-76
2022/09/26 05:12:10;;;;;;;7.03;3.53;;;11.00;99.90;;;;;;4975760;28;20458;-75
2022/09/26 05:14:36;;;;;;;5.72;4.28;;;10.90;99.90;;;;;;4975559;28;20050;-74
2022/09/26 05:17:02;;;;;;;5.95;3.90;;;11.10;99.90;;;;;;4975832;28;20121;-75
2022/09/26 05:19:28;;;;;;;5.55;3.97;;;11.00;99.90;;;;;;4975309;28;20539;-75
2022/09/26 05:21:54;;;;;;;6.45;3.95;;;11.00;99.90;;;;;;4975449;28;20173;-75
2022/09/26 05:27:06;;;;;;;5.60;3.80;;;10.90;99.90;;;;;;4976073;28;20047;-76
2022/09/26 05:29:32;;;;;;;5.72;4.40;;;10.90;99.90;;;;;;4975103;28;20057;-75
2022/09/26 05:32:00;;;;;;;4.85;3.92;;;10.90;99.90;;;;;;4974711;28;20038;-76
2022/09/26 05:34:25;;;;;;;8.00;4.22;;;10.90;99.90;;;;;;4974378;28;20066;-75
2022/09/26 05:36:55;;;;;;;8.43;5.05;;;10.90;99.90;;;;;;4975199;28;20449;-76
2022/09/26 05:42:06;;;;;;;8.10;4.28;;;10.90;99.90;;;;;;4975955;28;20058;-74
2022/09/26 05:44:31;;;;;;;6.43;4.40;;;10.90;99.90;;;;;;4975177;28;20058;-76
2022/09/26 05:46:58;;;;;;;8.77;5.30;;;11.00;99.90;;;;;;4975980;28;20049;-76
2022/09/26 05:49:24;;;;;;;7.38;4.90;;;11.00;99.90;;;;;;4975154;28;20137;-77
2022/09/26 05:51:51;;;;;;;7.70;4.28;;;10.90;99.90;;;;;;4975700;28;20049;-75
2022/09/26 05:54:17;;;;;;;6.13;4.60;;;11.80;99.90;;;;;;4975058;28;20090;-76
2022/09/26 05:56:42;;;;;;;9.18;4.78;;;10.90;99.90;;;;;;4957768;28;20093;-76
2022/09/26 05:59:08;;;;;;;7.90;4.40;;;11.10;99.90;;;;;;4975259;28;20042;-76
2022/09/26 06:01:34;;;;;;;7.40;5.22;;;10.90;99.90;;;;;;4975420;28;20042;-76
2022/09/26 06:04:01;;;;;;;6.97;5.60;;;11.30;99.90;;;;;;4974931;28;20046;-76
2022/09/26 06:06:28;;;;;;;7.93;5.10;;;10.90;99.90;;;;;;4974888;28;20106;-76
2022/09/26 06:08:54;;;;;;;7.65;4.93;;;10.90;99.90;;;;;;4975445;28;20061;-76
2022/09/26 06:11:29;;;;;;;8.40;5.53;;;11.00;99.90;;;;;;4974785;28;20102;-76
2022/09/26 06:13:58;;;;;;;7.88;5.20;;;10.90;99.90;;;;;;4973668;28;20043;-76
2022/09/26 06:16:23;;;;;;;6.75;4.90;;;11.00;99.90;;;;;;4975022;28;20078;-75
2022/09/26 06:18:51;;;;;;;7.82;5.22;;;10.90;99.90;;;;;;4973784;28;20096;-75
2022/09/26 06:21:18;;;;;;;8.55;5.63;;;10.90;99.90;;;;;;4974738;28;20050;-76
2022/09/26 06:23:45;;;;;;;6.50;4.95;;;11.10;99.90;;;;;;4974720;28;20046;-76
2022/09/26 06:26:14;;;;;;;7.55;4.85;;;11.10;99.90;;;;;;4974973;28;20450;-76
2022/09/26 06:28:40;;;;;;;6.68;5.03;;;10.90;99.90;;;;;;4975051;28;20478;-76
2022/09/26 06:31:11;;;;;;;6.65;4.72;;;11.00;99.90;;;;;;4975459;28;20130;-75
2022/09/26 06:33:37;;;;;;;7.35;5.13;;;11.00;99.90;;;;;;4974601;28;20050;-75
2022/09/26 06:36:05;;;;;;;8.70;5.03;;;10.90;99.90;;;;;;4974308;28;20047;-76
2022/09/26 06:38:31;;;;;;;8.98;4.95;;;11.00;99.90;;;;;;4974666;28;20051;-74
2022/09/26 06:40:57;;;;;;;9.70;4.32;;;10.90;99.90;;;;;;4974552;28;20045;-75
2022/09/26 06:43:22;;;;;;;6.70;4.75;;;10.90;99.90;;;;;;4974437;28;20057;-75
2022/09/26 06:45:48;;;;;;;6.63;4.50;;;11.00;99.90;;;;;;4973564;28;20483;-76
2022/09/26 06:48:16;;;;;;;9.95;5.03;;;11.00;99.90;;;;;;4975285;28;20125;-76
2022/09/26 06:50:42;;;;;;;6.43;4.30;;;11.00;99.90;;;;;;4974352;28;20062;-76
2022/09/26 06:53:08;;;;;;;9.40;5.35;;;11.00;99.90;;;;;;4974435;28;20039;-75
2022/09/26 06:55:33;;;;;;;6.35;4.40;;;11.00;99.90;;;;;;4974874;28;20051;-74
2022/09/26 06:57:59;;;;;;;6.90;4.55;;;10.90;99.90;;;;;;4975217;28;20046;-76
2022/09/26 07:00:25;;;;;;;6.47;4.50;;;11.10;99.90;;;;;;4974920;28;20102;-75
2022/09/26 07:02:53;;;;;;;5.35;3.97;;;11.00;99.90;;;;;;4974911;28;20039;-75
2022/09/26 07:05:20;;;;;;;6.13;4.18;;;11.10;99.90;;;;;;4974348;28;20053;-74
2022/09/26 07:07:47;;;;;;;6.85;4.20;;;11.00;99.90;;;;;;4974281;28;20395;-76
2022/09/26 07:10:17;;;;;;;5.32;3.55;;;10.90;99.90;;;;;;4974288;28;20093;-75
2022/09/26 07:12:45;;;;;;;6.72;4.10;;;11.00;99.90;;;;;;4973176;28;20452;-75
2022/09/26 07:15:18;;;;;;;6.18;4.18;;;11.00;99.90;;;;;;4974270;28;20129;-76
2022/09/26 07:17:47;;;;;;;6.80;3.83;;;11.00;99.90;;;;;;4974367;28;20090;-75
2022/09/26 07:20:18;;;;;;;6.68;3.88;;;11.10;99.90;;;;;;4974827;28;20051;-76
2022/09/26 07:22:45;;;;;;;7.80;4.38;;;10.90;99.90;;;;;;4974177;28;20042;-76
2022/09/26 07:25:12;;;;;;;5.15;3.80;;;11.00;99.90;;;;;;4977913;28;20379;-79
2022/09/26 07:27:39;;;;;;;6.07;3.78;;;10.90;99.90;;;;;;4977092;28;20083;-78
2022/09/26 07:30:06;;;;;;;4.28;3.35;;;10.90;99.90;;;;;;4977748;28;20046;-77
2022/09/26 07:32:32;;;;;;;5.70;4.05;;;10.90;99.90;;;;;;4977726;28;20058;-79
2022/09/26 07:34:58;;;;;;;5.38;3.90;;;11.00;99.90;;;;;;4976549;28;20055;-79
2022/09/26 07:37:25;;;;;;;5.53;3.35;;;11.00;99.90;;;;;;4977369;28;20051;-77
2022/09/26 07:39:51;;;;;;;5.70;3.53;;;10.90;99.90;;;;;;4976609;28;20046;-78
2022/09/26 07:42:17;;;;;;;4.15;3.45;;;10.90;99.90;;;;;;4977099;28;20157;-77
2022/09/26 07:44:43;;;;;;;5.50;3.80;;;10.80;99.90;;;;;;4976682;28;20066;-79
2022/09/26 07:50:13;;;;;;;5.95;4.10;;;10.90;99.90;;;;;;4976688;28;20058;-76
2022/09/26 07:52:41;;;;;;;6.57;3.50;;;10.90;99.90;;;;;;4977367;28;20105;-77
2022/09/26 07:55:12;;;;;;;5.50;3.05;;;10.80;99.90;;;;;;4977249;28;20042;-77
2022/09/26 07:57:38;;;;;;;5.32;3.08;;;10.80;99.90;;;;;;4977225;28;20127;-78
2022/09/26 08:00:07;;;;;;;5.15;3.10;;;11.00;99.90;;;;;;4977067;28;20043;-78
2022/09/26 08:02:34;;;;;;;3.40;2.67;;;10.90;99.90;;;;;;4977858;28;20050;-79
2022/09/26 08:05:04;;;;;;;5.50;3.05;;;10.90;99.90;;;;;;4975755;28;20480;-77
2022/09/26 08:07:31;;;;;;;6.97;3.65;;;10.80;99.90;;;;;;4977168;28;20130;-80
2022/09/26 08:09:57;;;;;;;3.83;2.40;;;10.90;99.90;;;;;;4960304;28;20435;-80
2022/09/26 08:12:25;;;;;;;4.97;2.70;;;10.80;99.90;;;;;;4975904;28;20042;-78
2022/09/26 08:14:51;;;;;;;3.60;2.40;;;10.80;99.90;;;;;;4977791;28;20053;-81
2022/09/26 08:17:20;;;;;;;5.50;2.42;;;10.80;99.90;;;;;;4976384;28;20055;-77
2022/09/26 08:19:46;;;;;;;5.82;2.42;;;10.90;99.90;;;;;;4975629;28;20142;-76
2022/09/26 08:22:13;;;;;;;3.45;2.83;;;10.90;99.90;;;;;;4976706;28;20137;-77
2022/09/26 08:24:39;;;;;;;4.90;2.85;;;10.80;99.90;;;;;;4976875;28;20047;-78
2022/09/26 08:27:05;;;;;;;4.72;2.53;;;10.80;99.90;;;;;;4976314;28;20046;-79
2022/09/26 08:29:31;;;;;;;4.47;2.70;;;11.10;99.90;;;;;;4977330;28;20050;-76
2022/09/26 08:31:59;;;;;;;5.57;2.28;;;10.90;99.90;;;;;;4976613;28;20054;-73
2022/09/26 08:34:25;;;;;;;6.22;3.80;;;11.10;99.90;;;;;;4975222;28;20094;-75
2022/09/26 08:36:52;;;;;;;11.38;4.80;;;10.90;99.90;;;;;;4976251;28;20565;-77
2022/09/26 08:39:19;;;;;;;5.10;2.53;;;10.90;99.90;;;;;;4975345;28;20081;-77
2022/09/26 08:41:54;;;;;;;3.40;2.40;;;10.90;99.90;;;;;;4976388;28;20093;-77
2022/09/26 08:44:28;;;;;;;3.47;2.42;;;11.00;99.90;;;;;;4977104;28;20376;-79
2022/09/26 08:47:00;;;;;;;5.47;2.47;;;11.00;99.90;;;;;;4975408;28;20105;-77
2022/09/26 08:49:58;;;;;;;3.47;2.13;;;11.00;99.90;;;;;;4975394;28;20109;-77
2022/09/26 08:52:27;;;;;;;5.85;2.33;;;11.00;99.90;;;;;;4976795;28;20078;-80
2022/09/26 08:54:56;;;;;;;4.30;2.15;;;11.00;99.90;;;;;;4976193;28;20051;-80
2022/09/26 08:57:41;;;;;;;3.78;2.15;;;11.10;99.90;;;;;;4975151;28;20133;-80
2022/09/26 09:00:24;;;;;;;6.97;2.70;;;11.00;99.90;;;;;;4976119;28;20051;-78
2022/09/26 09:03:00;;;;;;;4.78;2.67;;;11.00;99.90;;;;;;4976966;28;20368;-79
2022/09/26 09:05:31;;;;;;;5.22;2.95;;;11.00;99.90;;;;;;4974915;28;20053;-78
2022/09/26 09:08:00;;;;;;;7.28;3.50;;;11.10;99.90;;;;;;4976060;28;20043;-79
2022/09/26 09:10:50;;;;;;;6.57;2.65;;;11.20;99.90;;;;;;4974719;28;20495;-77
2022/09/26 09:13:38;;;;;;;4.65;2.83;;;11.00;99.90;;;;;;4976365;28;20047;-78
2022/09/26 09:16:16;;;;;;;7.10;2.72;;;11.10;99.90;;;;;;4976341;28;20057;-78
2022/09/26 09:18:44;;;;;;;3.72;2.63;;;11.10;99.90;;;;;;4975757;28;20046;-77
2022/09/26 09:21:24;;;;;;;4.00;2.65;;;11.10;99.90;;;;;;4976235;28;20047;-78
2022/09/26 09:23:50;;;;;;;4.63;2.78;;;11.50;99.90;;;;;;4975927;28;20051;-79
2022/09/26 09:26:45;;;;;;;6.60;2.80;;;11.20;99.90;;;;;;4974708;28;20134;-80
2022/09/26 09:29:25;;;;;;;5.28;2.70;;;11.40;99.90;;;;;;4975818;28;20435;-80
2022/09/26 09:31:53;;;;;;;3.95;2.33;;;11.20;99.90;;;;;;4974830;28;20145;-78
2022/09/26 09:34:25;;;;;;;5.47;2.55;;;11.50;99.90;;;;;;4975214;28;20055;-77
2022/09/26 09:36:56;;;;;;;3.90;2.30;;;11.40;99.90;;;;;;4974636;28;20051;-78
2022/09/26 09:39:35;;;;;;;4.90;2.42;;;11.30;99.90;;;;;;4975469;28;20059;-77
2022/09/26 09:42:45;;;;;;;3.85;2.33;;;11.70;99.90;;;;;;4975768;28;20090;-78
2022/09/26 09:45:29;;;;;;;4.72;2.40;;;11.50;99.90;;;;;;4972247;28;20123;-80
2022/09/26 09:47:56;;;;;;;5.80;2.63;;;11.50;99.90;;;;;;4975028;28;20046;-77
2022/09/26 09:50:50;;;;;;;6.28;2.38;;;11.50;99.90;;;;;;4975169;28;20050;-78
2022/09/26 09:53:38;;;;;;;6.35;2.50;;;11.50;99.90;;;;;;4975721;28;20049;-78
2022/09/26 09:56:46;;;;;;;4.57;2.17;;;11.50;99.90;;;;;;4975180;28;20101;-78
2022/09/26 09:59:14;;;;;;;4.82;2.50;;;11.40;99.90;;;;;;4975121;28;20057;-79
2022/09/26 10:01:42;;;;;;;5.03;2.42;;;11.50;99.90;;;;;;4974984;28;20053;-79
2022/09/26 10:04:26;;;;;;;4.05;2.58;;;11.70;99.90;;;;;;4974859;28;20086;-79
2022/09/26 10:06:54;;;;;;;7.53;2.25;;;11.50;99.90;;;;;;4975316;28;20105;-79
2022/09/26 10:09:26;;;;;;;4.47;2.70;;;11.50;99.90;;;;;;4975272;28;20047;-79
2022/09/26 10:11:53;;;;;;;5.13;2.65;;;11.50;99.90;;;;;;4974758;28;20491;-78
2022/09/26 10:14:50;;;;;;;4.93;2.65;;;11.50;99.90;;;;;;4957550;28;20057;-77
2022/09/26 10:17:19;;;;;;;5.65;2.60;;;11.60;99.90;;;;;;4974163;28;20155;-77
2022/09/26 10:19:45;;;;;;;5.03;2.92;;;11.80;99.90;;;;;;4974768;28;20050;-77
2022/09/26 10:22:34;;;;;;;4.90;2.50;;;11.50;99.90;;;;;;4973751;28;20043;-77
2022/09/26 10:25:21;;;;;;;4.57;2.65;;;11.60;99.90;;;;;;4975654;28;20088;-78
2022/09/26 10:27:56;;;;;;;4.50;2.90;;;11.70;99.90;;;;;;4974746;28;20487;-78
2022/09/26 10:30:25;;;;;;;8.05;2.90;;;11.50;99.90;;;;;;4974709;28;20054;-77
2022/09/26 10:32:54;;;;;;;3.42;2.80;;;11.50;99.90;;;;;;4973536;28;20589;-78
2022/09/26 10:35:24;;;;;;;6.45;2.65;;;11.60;99.90;;;;;;4974716;28;20101;-77
2022/09/26 10:38:02;;;;;;;4.68;2.92;;;11.50;99.90;;;;;;4973095;28;20058;-77
2022/09/26 10:41:06;;;;;;;7.75;3.17;;;11.80;99.90;;;;;;4973989;28;20656;-76
2022/09/26 10:43:33;;;;;;;5.25;3.10;;;11.70;99.90;;;;;;4972348;28;20051;-77
2022/09/26 10:46:03;;;;;;;5.72;2.78;;;11.50;99.90;;;;;;4974632;28;20056;-78
2022/09/26 10:48:47;;;;;;;5.70;3.30;;;11.50;99.90;;;;;;4975055;28;20047;-77
2022/09/26 10:51:19;;;;;;;4.63;3.22;;;11.50;99.90;;;;;;4973446;28;20134;-76
2022/09/26 10:53:50;;;;;;;5.10;2.83;;;11.50;99.90;;;;;;4975350;28;20093;-77
2022/09/26 10:56:25;;;;;;;4.55;3.15;;;11.70;99.90;;;;;;4975090;28;20093;-76
2022/09/26 10:58:56;;;;;;;5.55;3.50;;;11.50;99.90;;;;;;4961105;28;20055;-77
2022/09/26 11:01:25;;;;;;;5.22;3.45;;;11.50;99.90;;;;;;4978696;28;20043;-77
2022/09/26 11:03:59;;;;;;;6.15;3.70;;;11.50;99.90;;;;;;4978259;28;20142;-78
2022/09/26 11:06:39;;;;;;;5.22;3.22;;;11.70;99.90;;;;;;4978239;28;20138;-76
2022/09/26 11:09:06;;;;;;;5.78;3.60;;;11.60;99.90;;;;;;4978172;28;20054;-77
2022/09/26 11:11:35;;;;;;;6.60;3.17;;;11.60;99.90;;;;;;4978072;28;20539;-77
2022/09/26 11:14:06;;;;;;;5.72;2.83;;;11.60;99.90;;;;;;4977014;28;20097;-77
2022/09/26 11:16:48;;;;;;;4.90;3.00;;;11.60;99.90;;;;;;4978885;28;20058;-77
2022/09/26 11:19:25;;;;;;;6.00;2.85;;;11.60;99.90;;;;;;4960997;28;20099;-79
2022/09/26 11:22:26;;;;;;;7.88;3.72;;;11.60;99.90;;;;;;4976686;28;20078;-77
2022/09/26 11:25:21;;;;;;;3.90;2.60;;;11.50;99.90;;;;;;4945642;28;20121;-77
2022/09/26 11:27:52;;;;;;;5.35;2.65;;;11.60;99.90;;;;;;4977567;28;20518;-77
2022/09/26 11:30:22;;;;;;;4.68;2.75;;;11.60;99.90;;;;;;4978560;28;20047;-78
2022/09/26 11:32:50;;;;;;;5.85;2.95;;;11.60;99.90;;;;;;4977766;28;20069;-77
2022/09/26 11:35:51;;;;;;;4.90;3.20;;;11.60;99.90;;;;;;4977708;28;20094;-77
2022/09/26 11:38:52;;;;;;;3.72;3.08;;;11.60;99.90;;;;;;4961817;28;20063;-77
2022/09/26 11:41:35;;;;;;;4.90;3.47;;;11.60;99.90;;;;;;4977384;28;20043;-76
2022/09/26 11:44:33;;;;;;;5.45;3.20;;;11.60;99.90;;;;;;4977513;28;20058;-78
2022/09/26 11:47:01;;;;;;;5.07;3.85;;;11.60;99.90;;;;;;4971216;28;20050;-79
2022/09/26 11:49:47;;;;;;;5.53;3.53;;;11.60;99.90;;;;;;4977379;28;20206;-80
2022/09/26 11:52:42;;;;;;;6.38;3.58;;;11.50;99.90;;;;;;4977054;28;20432;-80
2022/09/26 11:55:37;;;;;;;6.03;3.38;;;11.60;99.90;;;;;;4954410;28;20051;-78
2022/09/26 11:58:19;;;;;;;3.72;3.38;;;11.60;99.90;;;;;;4925455;28;20407;-77
2022/09/26 12:01:15;;;;;;;6.60;3.35;;;11.60;99.90;;;;;;4976572;28;20050;-79
2022/09/26 12:04:11;;;;;;;3.95;3.17;;;11.50;99.90;;;;;;4977527;28;20503;-78
2022/09/26 12:07:00;;;;;;;3.78;2.53;;;11.50;99.90;;;;;;4977139;28;20046;-78
2022/09/26 12:09:53;;;;;;;3.60;2.67;;;11.50;99.90;;;;;;4975915;28;20046;-79
2022/09/26 12:12:27;;;;;;;4.82;2.85;;;11.60;99.90;;;;;;4977557;28;20093;-78
2022/09/26 12:15:19;;;;;;;3.42;2.67;;;11.50;99.90;;;;;;4975393;28;20517;-78
2022/09/26 12:18:12;;;;;;;4.40;2.50;;;11.50;99.90;;;;;;4976942;28;20086;-79
2022/09/26 12:20:52;;;;;;;3.28;2.15;;;11.50;99.90;;;;;;4976245;28;20101;-79
2022/09/26 12:23:42;;;;;;;3.00;2.42;;;11.50;99.90;;;;;;4976753;28;20038;-78
2022/09/26 12:26:24;;;;;;;4.28;2.53;;;11.50;99.90;;;;;;4976616;28;20385;-78
2022/09/26 12:29:19;;;;;;;4.72;3.03;;;11.50;99.90;;;;;;4976725;28;20042;-78
2022/09/26 12:32:18;;;;;;;4.32;3.00;;;11.50;99.90;;;;;;4977219;28;20042;-77
2022/09/26 12:34:54;;;;;;;5.18;3.17;;;11.60;99.90;;;;;;4976478;28;20057;-79
2022/09/26 12:37:40;;;;;;;5.70;3.13;;;11.50;99.90;;;;;;4976766;28;20063;-78
2022/09/26 12:40:22;;;;;;;6.50;3.10;;;11.60;99.90;;;;;;4977087;28;20478;-78
2022/09/26 12:42:50;;;;;;;3.28;2.95;;;11.60;99.90;;;;;;4976127;28;20491;-78
2022/09/26 12:45:51;;;;;;;3.75;3.10;;;11.60;99.90;;;;;;4976804;28;20051;-78
2022/09/26 12:48:40;;;;;;;3.25;2.92;;;11.60;99.90;;;;;;4976923;28;20360;-75
2022/09/26 12:51:21;;;;;;;5.55;2.80;;;11.70;99.90;;;;;;4976573;28;20475;-78
2022/09/26 12:54:11;;;;;;;3.40;3.08;;;11.60;99.90;;;;;;4976297;28;20051;-78
2022/09/26 12:56:53;;;;;;;4.10;2.72;;;11.70;99.90;;;;;;4976791;28;20058;-78
2022/09/26 12:59:37;;;;;;;4.53;2.70;;;11.70;99.90;;;;;;4975407;28;20051;-78
2022/09/26 13:02:21;;;;;;;4.13;3.22;;;11.70;99.90;;;;;;4975998;28;20043;-78
2022/09/26 13:05:05;;;;;;;3.70;3.00;;;11.70;99.90;;;;;;4975727;28;20130;-77
2022/09/26 13:08:07;;;;;;;4.75;2.67;;;11.70;99.90;;;;;;4976020;28;20186;-78
2022/09/26 13:10:49;;;;;;;4.40;2.47;;;11.70;99.90;;;;;;4975359;28;20493;-78
2022/09/26 13:13:30;;;;;;;4.40;2.90;;;11.70;99.90;;;;;;4975801;28;20490;-77
2022/09/26 13:16:14;;;;;;;3.90;2.30;;;11.70;99.90;;;;;;4976443;28;20046;-79
2022/09/26 13:18:46;;;;;;;3.13;2.20;;;11.80;99.90;;;;;;4976073;28;20435;-76
2022/09/26 13:21:20;;;;;;;3.17;2.70;;;11.70;99.90;;;;;;4976327;28;20117;-78
2022/09/26 13:23:52;;;;;;;3.10;2.38;;;11.80;99.90;;;;;;4958608;28;20054;-78
2022/09/26 13:26:32;;;;;;;5.03;3.20;;;11.70;99.90;;;;;;4975673;28;20483;-77
2022/09/26 13:29:07;;;;;;;2.95;2.63;;;11.70;99.90;;;;;;4976203;28;20410;-77